Time;durP1;ratioP1;P1;durP2;ratioP2;P2;SDS_P1;SDS_P2;PMS_P1;PMS_P2;Temp;Humidity;BMP_temperature;BMP_pressure;BME280_temperature;BME280_humidity;BME280_pressure;Samples;Min_cycle;Max_cycle;Signal;HPM_P1;HPM_P2
2023/09/25 00:01:15;;;;;;;3.53;2.53;;;;;;;;;;5049712;28;20048;-62
2023/09/25 00:03:41;;;;;;;4.75;2.78;;;;;;;;;;5049389;28;20029;-62
2023/09/25 00:06:08;;;;;;;7.38;3.03;;;;;;;;;;5068046;28;20045;-62
2023/09/25 00:08:34;;;;;;;5.03;2.30;;;;;;;;;;5069531;28;20082;-62
2023/09/25 00:11:00;;;;;;;4.82;2.85;;;;;;;;;;5051273;28;20072;-62
2023/09/25 00:13:26;;;;;;;3.28;2.38;;;;;;;;;;5069667;28;20072;-62
2023/09/25 00:15:52;;;;;;;3.30;2.33;;;;;;;;;;5069213;28;20448;-62
2023/09/25 00:18:18;;;;;;;4.45;2.28;;;;;;;;;;5049079;28;20044;-62
2023/09/25 00:20:44;;;;;;;6.20;2.33;;;;;;;;;;5049264;28;20475;-62
2023/09/25 00:23:10;;;;;;;6.35;2.60;;;;;;;;;;5049487;28;20048;-62
2023/09/25 00:25:36;;;;;;;3.47;2.33;;;;;;;;;;5055529;28;20033;-62
2023/09/25 00:28:02;;;;;;;7.45;2.65;;;;;;;;;;5050299;28;20128;-62
2023/09/25 00:30:28;;;;;;;4.47;2.50;;;;;;;;;;5069277;28;20044;-62
2023/09/25 00:32:55;;;;;;;6.15;2.58;;;;;;;;;;5061213;28;20425;-62
2023/09/25 00:35:21;;;;;;;4.95;2.47;;;;;;;;;;5049357;28;20037;-62
2023/09/25 00:37:47;;;;;;;3.65;2.55;;;;;;;;;;5064315;28;20047;-62
2023/09/25 00:40:14;;;;;;;3.92;2.80;;;;;;;;;;5068451;28;20136;-62
2023/09/25 00:42:41;;;;;;;5.63;2.50;;;;;;;;;;5069378;28;20044;-62
2023/09/25 00:45:07;;;;;;;2.85;2.40;;;;;;;;;;5068769;28;20486;-62
2023/09/25 00:47:33;;;;;;;4.35;2.90;;;;;;;;;;5068986;28;20047;-62
2023/09/25 00:49:59;;;;;;;5.28;2.80;;;;;;;;;;5069245;28;20479;-62
2023/09/25 00:52:25;;;;;;;4.78;3.13;;;;;;;;;;5068904;28;20037;-62
2023/09/25 00:54:52;;;;;;;6.72;3.03;;;;;;;;;;5068550;28;20049;-62
2023/09/25 00:57:18;;;;;;;4.43;3.03;;;;;;;;;;5068646;28;20044;-62
2023/09/25 00:59:44;;;;;;;6.82;2.80;;;;;;;;;;5070880;28;20112;-62
2023/09/25 01:02:10;;;;;;;5.25;2.83;;;;;;;;;;5072490;28;20049;-62
2023/09/25 01:04:37;;;;;;;7.88;3.45;;;;;;;;;;5072862;28;20487;-62
2023/09/25 01:07:04;;;;;;;5.45;2.85;;;;;;;;;;5072998;28;20036;-62
2023/09/25 01:09:30;;;;;;;4.85;2.80;;;;;;;;;;5072567;28;20036;-62
2023/09/25 01:11:56;;;;;;;6.80;3.15;;;;;;;;;;5072950;28;20433;-62
2023/09/25 01:14:23;;;;;;;3.15;2.85;;;;;;;;;;5072667;28;20036;-62
2023/09/25 01:16:48;;;;;;;4.25;3.42;;;;;;;;;;5070492;28;20040;-62
2023/09/25 01:19:14;;;;;;;3.65;3.05;;;;;;;;;;5072556;28;20049;-62
2023/09/25 01:21:46;;;;;;;6.07;3.17;;;;;;;;;;5072579;28;20047;-62
2023/09/25 01:24:12;;;;;;;6.40;3.17;;;;;;;;;;5072165;28;20412;-62
2023/09/25 01:26:38;;;;;;;3.95;3.20;;;;;;;;;;5056775;28;20124;-62
2023/09/25 01:29:04;;;;;;;4.97;3.03;;;;;;;;;;5060270;28;20076;-62
2023/09/25 01:31:30;;;;;;;6.85;3.13;;;;;;;;;;5072091;28;20070;-62
2023/09/25 01:33:56;;;;;;;6.63;3.15;;;;;;;;;;5072314;28;20376;-62
2023/09/25 01:36:22;;;;;;;4.72;2.92;;;;;;;;;;5072090;28;20040;-62
2023/09/25 01:38:48;;;;;;;3.38;3.08;;;;;;;;;;5072297;28;20127;-62
2023/09/25 01:41:15;;;;;;;7.95;3.20;;;;;;;;;;5071766;28;20048;-62
2023/09/25 01:43:41;;;;;;;3.83;2.78;;;;;;;;;;5072467;28;20037;-62
2023/09/25 01:46:07;;;;;;;4.88;3.17;;;;;;;;;;5071572;28;20041;-62
2023/09/25 01:48:33;;;;;;;4.45;3.05;;;;;;;;;;5071577;28;20046;-62
2023/09/25 01:50:59;;;;;;;4.20;2.80;;;;;;;;;;5071640;28;20056;-62
2023/09/25 01:53:25;;;;;;;3.70;3.05;;;;;;;;;;5072088;28;20052;-62
2023/09/25 01:55:51;;;;;;;3.65;2.70;;;;;;;;;;5071273;28;20432;-62
2023/09/25 01:58:17;;;;;;;5.35;2.95;;;;;;;;;;5072072;28;20097;-62
2023/09/25 02:00:43;;;;;;;5.50;3.15;;;;;;;;;;5070315;28;20059;-62
2023/09/25 02:03:09;;;;;;;4.13;2.80;;;;;;;;;;5071732;28;20135;-62
2023/09/25 02:05:35;;;;;;;4.25;3.03;;;;;;;;;;5071779;28;20675;-62
2023/09/25 02:08:01;;;;;;;5.40;3.00;;;;;;;;;;5031807;28;20092;-61
2023/09/25 02:10:27;;;;;;;5.63;3.30;;;;;;;;;;5065054;28;20045;-61
2023/09/25 02:12:52;;;;;;;6.03;2.90;;;;;;;;;;5071774;28;20524;-61
2023/09/25 02:15:18;;;;;;;6.30;2.80;;;;;;;;;;5071585;28;20491;-61
2023/09/25 02:17:44;;;;;;;4.53;3.10;;;;;;;;;;5067101;28;20415;-61
2023/09/25 02:20:17;;;;;;;4.20;3.03;;;;;;;;;;5071886;28;20036;-61
2023/09/25 02:22:43;;;;;;;;;;;;;;;;;;5071795;28;20487;-61
2023/09/25 02:25:09;;;;;;;3.90;2.97;;;;;;;;;;5061948;28;20015;-61
2023/09/25 02:27:35;;;;;;;4.07;3.00;;;;;;;;;;5047561;28;20406;-61
2023/09/25 02:30:01;;;;;;;6.30;2.88;;;;;;;;;;5064186;28;20433;-62
2023/09/25 02:32:27;;;;;;;7.28;3.03;;;;;;;;;;5070964;28;20036;-62
2023/09/25 02:34:53;;;;;;;5.13;2.70;;;;;;;;;;5070986;28;20048;-62
2023/09/25 02:37:19;;;;;;;5.55;3.20;;;;;;;;;;5052837;28;20372;-62
2023/09/25 02:39:45;;;;;;;4.90;2.92;;;;;;;;;;5070937;28;20040;-62
2023/09/25 02:42:11;;;;;;;6.22;3.05;;;;;;;;;;5070985;28;20036;-62
2023/09/25 02:44:37;;;;;;;6.45;3.08;;;;;;;;;;5070986;28;20122;-62
2023/09/25 02:47:03;;;;;;;3.92;3.05;;;;;;;;;;5070892;28;20312;-62
2023/09/25 02:49:29;;;;;;;5.65;3.50;;;;;;;;;;5071080;28;20450;-62
2023/09/25 02:51:55;;;;;;;8.57;3.40;;;;;;;;;;5070431;28;20135;-62
2023/09/25 02:54:21;;;;;;;5.43;3.53;;;;;;;;;;5070119;28;20052;-62
2023/09/25 02:56:48;;;;;;;6.07;3.08;;;;;;;;;;5067512;28;20045;-62
2023/09/25 02:59:14;;;;;;;4.70;2.92;;;;;;;;;;5071230;28;20548;-62
2023/09/25 03:01:40;;;;;;;4.55;2.80;;;;;;;;;;5070177;28;20032;-62
2023/09/25 03:04:06;;;;;;;6.93;3.38;;;;;;;;;;5071080;28;20040;-62
2023/09/25 03:06:32;;;;;;;4.10;3.05;;;;;;;;;;5070416;28;20044;-62
2023/09/25 03:08:58;;;;;;;5.55;2.95;;;;;;;;;;5070239;28;20087;-62
2023/09/25 03:11:24;;;;;;;5.40;3.63;;;;;;;;;;5070321;28;20037;-62
2023/09/25 03:13:50;;;;;;;5.43;3.28;;;;;;;;;;5070352;28;20060;-62
2023/09/25 03:16:17;;;;;;;5.82;3.10;;;;;;;;;;5067433;28;20121;-62
2023/09/25 03:18:43;;;;;;;3.97;3.30;;;;;;;;;;5067796;28;20614;-62
2023/09/25 03:21:11;;;;;;;6.22;3.47;;;;;;;;;;5069944;28;20043;-62
2023/09/25 03:23:37;;;;;;;5.40;3.22;;;;;;;;;;5051721;28;20039;-62
2023/09/25 03:26:03;;;;;;;8.15;3.58;;;;;;;;;;5059338;28;20084;-62
2023/09/25 03:28:29;;;;;;;4.88;3.17;;;;;;;;;;5050326;28;20084;-62
2023/09/25 03:30:55;;;;;;;4.20;3.30;;;;;;;;;;5050208;28;20097;-62
2023/09/25 03:33:23;;;;;;;9.68;3.78;;;;;;;;;;5069946;28;20037;-62
2023/09/25 03:35:49;;;;;;;4.80;3.22;;;;;;;;;;5070067;28;20085;-62
2023/09/25 03:38:15;;;;;;;5.47;3.30;;;;;;;;;;5069176;28;20047;-62
2023/09/25 03:40:41;;;;;;;5.97;3.15;;;;;;;;;;5070115;28;20032;-62
2023/09/25 03:43:07;;;;;;;6.13;3.63;;;;;;;;;;5069738;28;20036;-62
2023/09/25 03:45:34;;;;;;;4.63;3.28;;;;;;;;;;5069407;28;20037;-62
2023/09/25 03:48:00;;;;;;;5.47;3.35;;;;;;;;;;5052025;28;20067;-62
2023/09/25 03:50:25;;;;;;;7.78;3.80;;;;;;;;;;5069547;28;20061;-62
2023/09/25 03:52:52;;;;;;;5.28;3.55;;;;;;;;;;5069226;28;20052;-61
2023/09/25 03:55:17;;;;;;;4.75;3.30;;;;;;;;;;5069710;28;20446;-61
2023/09/25 03:57:43;;;;;;;5.03;3.50;;;;;;;;;;5069525;28;20037;-62
2023/09/25 04:00:10;;;;;;;5.18;3.60;;;;;;;;;;5069864;28;20040;-62
2023/09/25 04:02:36;;;;;;;5.95;3.28;;;;;;;;;;5069372;28;20074;-62
2023/09/25 04:05:02;;;;;;;6.25;3.33;;;;;;;;;;5069558;28;20123;-62
2023/09/25 04:07:28;;;;;;;6.47;3.65;;;;;;;;;;5069137;28;20040;-62
2023/09/25 04:09:54;;;;;;;5.97;3.83;;;;;;;;;;5069531;28;20173;-62
2023/09/25 04:12:20;;;;;;;4.72;3.67;;;;;;;;;;5069497;28;20159;-62
2023/09/25 04:14:46;;;;;;;4.82;3.60;;;;;;;;;;5068968;28;20036;-62
2023/09/25 04:17:13;;;;;;;5.97;3.53;;;;;;;;;;5062116;28;20391;-62
2023/09/25 04:19:39;;;;;;;5.35;4.00;;;;;;;;;;5069556;28;20045;-62
2023/09/25 04:22:06;;;;;;;5.90;3.45;;;;;;;;;;5068786;28;20040;-62
2023/09/25 04:24:34;;;;;;;5.35;3.47;;;;;;;;;;5069431;28;20406;-62
2023/09/25 04:27:02;;;;;;;5.15;3.42;;;;;;;;;;5067034;28;20036;-62
2023/09/25 04:29:28;;;;;;;4.80;3.40;;;;;;;;;;5068928;28;20048;-62
2023/09/25 04:31:53;;;;;;;6.18;3.40;;;;;;;;;;5069173;28;20403;-61
2023/09/25 04:34:19;;;;;;;5.00;3.65;;;;;;;;;;5069029;28;20106;-61
2023/09/25 04:36:46;;;;;;;4.50;3.03;;;;;;;;;;5068605;28;20048;-61
2023/09/25 04:39:12;;;;;;;4.63;3.25;;;;;;;;;;5069424;28;20470;-61
2023/09/25 04:41:38;;;;;;;6.45;3.55;;;;;;;;;;5069075;28;20045;-61
2023/09/25 04:44:04;;;;;;;3.90;3.28;;;;;;;;;;5028961;28;20037;-61
2023/09/25 04:46:31;;;;;;;5.15;3.30;;;;;;;;;;5053019;28;20048;-61
2023/09/25 04:48:57;;;;;;;5.90;3.50;;;;;;;;;;5050937;28;20044;-61
2023/09/25 04:51:23;;;;;;;4.63;3.40;;;;;;;;;;5068375;28;20408;-61
2023/09/25 04:53:49;;;;;;;5.35;3.67;;;;;;;;;;5068972;28;20086;-61
2023/09/25 04:56:21;;;;;;;4.80;3.40;;;;;;;;;;5069097;28;20048;-61
2023/09/25 04:58:47;;;;;;;4.45;3.25;;;;;;;;;;5050523;28;20049;-61
2023/09/25 05:01:14;;;;;;;5.10;3.63;;;;;;;;;;5069167;28;20568;-61
2023/09/25 05:03:43;;;;;;;4.47;3.65;;;;;;;;;;5068815;28;20102;-61
2023/09/25 05:06:12;;;;;;;5.18;3.65;;;;;;;;;;5068551;28;20068;-61
2023/09/25 05:08:38;;;;;;;3.97;3.25;;;;;;;;;;5068660;28;20045;-61
2023/09/25 05:11:08;;;;;;;4.90;3.17;;;;;;;;;;5068951;28;20112;-61
2023/09/25 05:13:34;;;;;;;5.45;3.78;;;;;;;;;;5068277;28;20110;-61
2023/09/25 05:16:03;;;;;;;6.88;3.90;;;;;;;;;;5068431;28;20128;-61
2023/09/25 05:18:29;;;;;;;7.05;3.70;;;;;;;;;;5059675;28;20082;-62
2023/09/25 05:20:57;;;;;;;4.30;3.65;;;;;;;;;;5068545;28;20155;-62
2023/09/25 05:23:23;;;;;;;5.05;3.53;;;;;;;;;;5068529;28;20624;-62
2023/09/25 05:25:49;;;;;;;8.68;3.80;;;;;;;;;;5065127;28;20166;-62
2023/09/25 05:28:15;;;;;;;4.95;3.20;;;;;;;;;;5068507;28;20105;-62
2023/09/25 05:30:41;;;;;;;6.57;3.90;;;;;;;;;;5056507;28;20041;-62
2023/09/25 05:33:08;;;;;;;5.05;3.40;;;;;;;;;;5048731;28;20045;-62
2023/09/25 05:35:34;;;;;;;6.68;3.47;;;;;;;;;;5067922;28;20044;-62
2023/09/25 05:38:00;;;;;;;6.45;3.50;;;;;;;;;;5068013;28;20525;-62
2023/09/25 05:40:26;;;;;;;5.22;3.80;;;;;;;;;;5068448;28;20063;-62
2023/09/25 05:42:52;;;;;;;5.18;3.53;;;;;;;;;;5068155;28;20048;-62
2023/09/25 05:45:20;;;;;;;3.90;3.20;;;;;;;;;;5068923;28;20456;-62
2023/09/25 05:47:46;;;;;;;5.75;3.30;;;;;;;;;;5072210;28;20051;-62
2023/09/25 05:50:12;;;;;;;4.75;3.50;;;;;;;;;;5072003;28;20216;-62
2023/09/25 05:52:39;;;;;;;8.73;3.03;;;;;;;;;;5071493;28;20527;-62
2023/09/25 05:55:06;;;;;;;6.72;3.20;;;;;;;;;;5071510;28;20059;-62
2023/09/25 05:57:32;;;;;;;5.40;3.40;;;;;;;;;;5071834;28;20036;-62
2023/09/25 06:00:03;;;;;;;5.65;3.50;;;;;;;;;;5071841;28;20044;-62
2023/09/25 06:02:33;;;;;;;5.82;3.60;;;;;;;;;;5071798;28;20047;-62
2023/09/25 06:04:59;;;;;;;3.97;3.20;;;;;;;;;;5072129;28;20048;-62
2023/09/25 06:07:25;;;;;;;5.00;3.28;;;;;;;;;;5070974;28;20537;-61
2023/09/25 06:09:51;;;;;;;6.43;3.85;;;;;;;;;;5072050;28;20052;-61
2023/09/25 06:12:17;;;;;;;6.40;3.08;;;;;;;;;;5071833;28;20032;-61
2023/09/25 06:14:43;;;;;;;6.57;3.53;;;;;;;;;;5071091;28;20427;-61
2023/09/25 06:17:09;;;;;;;4.07;3.00;;;;;;;;;;5061747;28;20037;-61
2023/09/25 06:19:36;;;;;;;4.60;2.97;;;;;;;;;;5051782;28;20330;-62
2023/09/25 06:22:02;;;;;;;5.07;2.80;;;;;;;;;;5051648;28;20403;-59
2023/09/25 06:24:28;;;;;;;4.72;3.10;;;;;;;;;;5029218;28;20056;-60
2023/09/25 06:26:54;;;;;;;4.72;3.17;;;;;;;;;;5058681;28;20498;-60
2023/09/25 06:29:21;;;;;;;6.75;3.45;;;;;;;;;;5071251;28;20300;-60
2023/09/25 06:31:48;;;;;;;4.28;3.30;;;;;;;;;;5071901;28;20048;-59
2023/09/25 06:34:14;;;;;;;6.05;3.22;;;;;;;;;;5071453;28;20076;-60
2023/09/25 06:36:41;;;;;;;5.28;3.30;;;;;;;;;;5071177;28;20131;-60
2023/09/25 06:39:09;;;;;;;6.20;3.50;;;;;;;;;;5070771;28;20120;-59
2023/09/25 06:41:36;;;;;;;7.50;3.78;;;;;;;;;;5071159;28;20041;-60
2023/09/25 06:44:04;;;;;;;6.38;3.33;;;;;;;;;;5070352;28;20048;-60
2023/09/25 06:46:30;;;;;;;8.18;3.55;;;;;;;;;;5070989;28;20055;-59
2023/09/25 06:48:57;;;;;;;4.80;3.20;;;;;;;;;;5071082;28;20037;-60
2023/09/25 06:51:23;;;;;;;5.60;3.50;;;;;;;;;;5070130;28;20084;-59
2023/09/25 06:53:49;;;;;;;7.85;3.47;;;;;;;;;;5068500;28;20079;-60
2023/09/25 06:56:15;;;;;;;5.25;3.13;;;;;;;;;;5050203;28;20518;-60
2023/09/25 06:58:42;;;;;;;5.88;3.22;;;;;;;;;;5059149;28;20040;-61
2023/09/25 07:01:08;;;;;;;4.93;2.92;;;;;;;;;;5060286;28;20063;-61
2023/09/25 07:03:34;;;;;;;7.20;3.38;;;;;;;;;;5056487;28;20033;-61
2023/09/25 07:06:00;;;;;;;5.63;3.75;;;;;;;;;;5068149;28;20169;-61
2023/09/25 07:08:27;;;;;;;5.68;3.30;;;;;;;;;;5070113;28;20051;-61
2023/09/25 07:10:53;;;;;;;5.47;3.50;;;;;;;;;;5070066;28;20110;-61
2023/09/25 07:13:20;;;;;;;5.50;3.00;;;;;;;;;;5069861;28;20028;-61
2023/09/25 07:15:47;;;;;;;7.30;3.20;;;;;;;;;;5070342;28;20503;-60
2023/09/25 07:18:13;;;;;;;5.47;3.50;;;;;;;;;;5056027;28;20123;-61
2023/09/25 07:20:39;;;;;;;7.60;3.15;;;;;;;;;;5069248;28;20052;-61
2023/09/25 07:23:06;;;;;;;4.80;3.50;;;;;;;;;;5069766;28;20040;-61
2023/09/25 07:25:32;;;;;;;5.60;3.35;;;;;;;;;;5063159;28;20478;-61
2023/09/25 07:27:59;;;;;;;5.95;3.33;;;;;;;;;;5068601;28;20052;-61
2023/09/25 07:30:25;;;;;;;7.55;3.63;;;;;;;;;;5069378;28;20252;-61
2023/09/25 07:32:51;;;;;;;6.82;3.45;;;;;;;;;;5069473;28;20067;-61
2023/09/25 07:35:18;;;;;;;5.15;3.50;;;;;;;;;;5068986;28;20040;-61
2023/09/25 07:37:44;;;;;;;5.20;3.30;;;;;;;;;;5051745;28;20047;-61
2023/09/25 07:40:13;;;;;;;8.57;3.30;;;;;;;;;;5069047;28;20036;-61
2023/09/25 07:42:40;;;;;;;4.32;3.20;;;;;;;;;;5069003;28;20287;-61
2023/09/25 07:45:09;;;;;;;5.13;3.13;;;;;;;;;;5068949;28;20052;-61
2023/09/25 07:47:38;;;;;;;7.68;3.83;;;;;;;;;;5069738;28;20056;-61
2023/09/25 07:50:10;;;;;;;6.38;3.03;;;;;;;;;;5068672;28;20288;-61
2023/09/25 07:52:37;;;;;;;5.90;3.08;;;;;;;;;;5068880;28;20049;-61
2023/09/25 07:55:06;;;;;;;4.85;3.55;;;;;;;;;;5069062;28;20487;-61
2023/09/25 07:57:35;;;;;;;4.95;3.08;;;;;;;;;;5068846;28;20044;-61
2023/09/25 08:00:10;;;;;;;6.95;3.25;;;;;;;;;;5069090;28;20372;-61
2023/09/25 08:02:39;;;;;;;5.25;3.22;;;;;;;;;;5069123;28;20441;-61
2023/09/25 08:05:07;;;;;;;6.38;3.38;;;;;;;;;;5050923;28;20052;-61
2023/09/25 08:07:32;;;;;;;5.97;3.28;;;;;;;;;;5069372;28;20040;-60
2023/09/25 08:10:00;;;;;;;6.07;3.00;;;;;;;;;;5068247;28;20040;-60
2023/09/25 08:12:26;;;;;;;5.70;2.72;;;;;;;;;;5069644;28;20098;-60
2023/09/25 08:14:51;;;;;;;4.65;2.75;;;;;;;;;;5068857;28;20044;-60
2023/09/25 08:17:17;;;;;;;4.47;2.80;;;;;;;;;;5068093;28;20083;-60
2023/09/25 08:19:43;;;;;;;10.23;3.28;;;;;;;;;;5068767;28;20036;-60
2023/09/25 08:22:10;;;;;;;3.75;2.85;;;;;;;;;;5062963;28;20044;-59
2023/09/25 08:24:36;;;;;;;5.10;2.90;;;;;;;;;;5067950;28;20036;-60
2023/09/25 08:27:04;;;;;;;4.78;2.55;;;;;;;;;;5059294;28;20044;-60
2023/09/25 08:29:30;;;;;;;3.85;2.50;;;;;;;;;;5068955;28;20055;-59
2023/09/25 08:31:56;;;;;;;3.92;2.72;;;;;;;;;;5068839;28;20044;-60
2023/09/25 08:34:23;;;;;;;4.50;2.75;;;;;;;;;;5067808;28;20533;-60
2023/09/25 08:36:48;;;;;;;8.32;2.92;;;;;;;;;;5069195;28;20041;-60
2023/09/25 08:39:15;;;;;;;5.30;2.63;;;;;;;;;;5060371;28;20037;-60
2023/09/25 08:41:41;;;;;;;5.15;2.75;;;;;;;;;;5060668;28;20319;-60
2023/09/25 08:44:08;;;;;;;6.05;3.38;;;;;;;;;;5068608;28;20075;-60
2023/09/25 08:46:34;;;;;;;5.18;2.97;;;;;;;;;;5068653;28;20041;-60
2023/09/25 08:49:01;;;;;;;4.20;2.75;;;;;;;;;;5050467;28;20037;-60
2023/09/25 08:51:34;;;;;;;5.25;2.80;;;;;;;;;;5068604;28;20052;-60
2023/09/25 08:54:00;;;;;;;3.83;2.40;;;;;;;;;;5067938;28;20044;-60
2023/09/25 08:56:26;;;;;;;3.15;1.98;;;;;;;;;;5067943;28;20040;-60
2023/09/25 08:58:52;;;;;;;3.97;2.80;;;;;;;;;;5046338;28;20200;-61
2023/09/25 09:01:18;;;;;;;3.42;2.25;;;;;;;;;;5056867;28;20111;-61
2023/09/25 09:03:45;;;;;;;4.18;2.58;;;;;;;;;;5067628;28;20040;-61
2023/09/25 09:06:11;;;;;;;5.70;2.72;;;;;;;;;;5068247;28;20388;-61
2023/09/25 09:08:37;;;;;;;7.00;2.30;;;;;;;;;;5068561;28;20298;-61
2023/09/25 09:11:13;;;;;;;5.38;2.20;;;;;;;;;;5068120;28;20047;-61
2023/09/25 09:13:57;;;;;;;3.42;1.90;;;;;;;;;;5067926;28;20484;-61
2023/09/25 09:16:23;;;;;;;4.97;2.65;;;;;;;;;;5064721;28;20041;-61
2023/09/25 09:18:49;;;;;;;4.07;2.33;;;;;;;;;;5067602;28;20224;-61
2023/09/25 09:21:24;;;;;;;4.20;2.13;;;;;;;;;;5070159;28;20140;-61
2023/09/25 09:23:50;;;;;;;5.38;2.40;;;;;;;;;;5071638;28;20642;-61
2023/09/25 09:26:16;;;;;;;4.75;2.45;;;;;;;;;;5056102;28;20080;-62
2023/09/25 09:28:43;;;;;;;6.68;2.47;;;;;;;;;;5044169;28;20106;-62
2023/09/25 09:31:10;;;;;;;5.22;2.17;;;;;;;;;;5060946;28;20331;-62
2023/09/25 09:33:43;;;;;;;5.50;2.47;;;;;;;;;;5054968;28;20048;-61
2023/09/25 09:36:08;;;;;;;;;;;;;;;;;;5055396;28;20043;-61
2023/09/25 09:38:36;;;;;;;3.95;1.90;;;;;;;;;;5058633;28;20375;-62
2023/09/25 09:41:06;;;;;;;5.03;2.58;;;;;;;;;;5069206;28;20127;-64
2023/09/25 09:43:32;;;;;;;4.85;2.50;;;;;;;;;;5041708;28;20108;-63
2023/09/25 09:45:58;;;;;;;5.03;2.40;;;;;;;;;;5065123;28;20082;-64
2023/09/25 09:48:24;;;;;;;4.45;2.03;;;;;;;;;;5064976;28;20218;-63
2023/09/25 09:50:52;;;;;;;8.18;2.40;;;;;;;;;;5048734;28;20574;-62
2023/09/25 09:53:18;;;;;;;5.55;2.00;;;;;;;;;;5048731;28;20045;-63
2023/09/25 09:55:45;;;;;;;5.15;2.13;;;;;;;;;;5039847;28;20048;-63
2023/09/25 09:58:12;;;;;;;5.32;2.40;;;;;;;;;;5054605;28;20055;-64
2023/09/25 10:00:39;;;;;;;5.25;2.40;;;;;;;;;;5070178;28;20337;-62
2023/09/25 10:03:08;;;;;;;3.50;2.50;;;;;;;;;;5040103;28;20033;-62
2023/09/25 10:05:43;;;;;;;5.10;2.30;;;;;;;;;;5054467;28;20483;-63
2023/09/25 10:08:12;;;;;;;4.95;2.55;;;;;;;;;;5059783;28;20068;-61
2023/09/25 10:10:40;;;;;;;4.10;2.30;;;;;;;;;;5055510;28;20044;-61
2023/09/25 10:13:28;;;;;;;4.00;2.50;;;;;;;;;;5057997;28;20128;-61
2023/09/25 10:15:58;;;;;;;5.40;2.40;;;;;;;;;;5054581;28;20442;-61
2023/09/25 10:18:26;;;;;;;4.90;2.30;;;;;;;;;;5049461;28;20116;-61
2023/09/25 10:20:57;;;;;;;6.68;2.50;;;;;;;;;;5035991;28;20387;-62
2023/09/25 10:23:25;;;;;;;4.68;2.33;;;;;;;;;;5051752;28;20442;-60
2023/09/25 10:26:02;;;;;;;4.95;2.30;;;;;;;;;;5038723;28;20048;-63
2023/09/25 10:28:38;;;;;;;4.40;2.25;;;;;;;;;;5052985;28;20048;-63
2023/09/25 10:31:05;;;;;;;4.35;2.20;;;;;;;;;;5060321;28;20727;-63
2023/09/25 10:33:37;;;;;;;5.88;2.20;;;;;;;;;;5050900;28;20510;-63
2023/09/25 10:36:04;;;;;;;4.63;2.20;;;;;;;;;;5051318;28;20115;-63
2023/09/25 10:38:33;;;;;;;3.72;1.83;;;;;;;;;;5068867;28;20429;-63
2023/09/25 10:41:16;;;;;;;3.22;1.90;;;;;;;;;;5069933;28;20101;-63
2023/09/25 10:43:42;;;;;;;5.28;1.70;;;;;;;;;;5069366;28;20412;-63
2023/09/25 10:46:09;;;;;;;5.78;1.98;;;;;;;;;;5046037;28;20073;-63
2023/09/25 10:48:35;;;;;;;5.78;2.10;;;;;;;;;;5039009;28;20053;-62
2023/09/25 10:51:01;;;;;;;4.75;2.22;;;;;;;;;;5060337;28;20471;-63
2023/09/25 10:53:27;;;;;;;4.95;1.85;;;;;;;;;;5037841;28;20073;-62
2023/09/25 10:55:54;;;;;;;2.83;1.60;;;;;;;;;;5030402;28;20050;-63
2023/09/25 10:58:21;;;;;;;3.78;1.83;;;;;;;;;;5061446;28;20044;-63
2023/09/25 11:00:49;;;;;;;5.57;1.85;;;;;;;;;;5050960;28;20452;-62
2023/09/25 11:03:16;;;;;;;3.00;1.95;;;;;;;;;;5054420;28;20059;-62
2023/09/25 11:05:42;;;;;;;4.03;1.88;;;;;;;;;;5060002;28;20044;-63
2023/09/25 11:08:15;;;;;;;5.65;2.05;;;;;;;;;;5063874;28;20048;-63
2023/09/25 11:10:42;;;;;;;3.63;1.77;;;;;;;;;;5053200;28;20045;-62
2023/09/25 11:13:08;;;;;;;3.45;2.15;;;;;;;;;;5049347;28;20491;-62
2023/09/25 11:15:38;;;;;;;4.15;1.95;;;;;;;;;;5069820;28;20037;-61
2023/09/25 11:18:06;;;;;;;3.00;1.65;;;;;;;;;;5061069;28;20090;-62
2023/09/25 11:20:33;;;;;;;5.20;2.10;;;;;;;;;;5050615;28;20041;-62
2023/09/25 11:23:08;;;;;;;4.22;1.88;;;;;;;;;;5053820;28;20123;-63
2023/09/25 11:25:41;;;;;;;4.30;1.60;;;;;;;;;;5067783;28;20383;-62
2023/09/25 11:28:08;;;;;;;3.33;1.92;;;;;;;;;;5068370;28;20051;-63
2023/09/25 11:30:34;;;;;;;2.55;1.70;;;;;;;;;;5027925;28;20451;-63
2023/09/25 11:33:07;;;;;;;1.77;1.63;;;;;;;;;;5060556;28;20049;-62
2023/09/25 11:35:37;;;;;;;3.50;1.98;;;;;;;;;;5043863;28;20047;-62
2023/09/25 11:38:11;;;;;;;5.78;2.00;;;;;;;;;;5062343;28;20041;-62
2023/09/25 11:40:38;;;;;;;2.70;1.70;;;;;;;;;;5063619;28;20115;-62
2023/09/25 11:43:04;;;;;;;3.05;1.67;;;;;;;;;;5064240;28;20041;-62
2023/09/25 11:45:30;;;;;;;3.97;1.88;;;;;;;;;;5039470;28;20048;-62
2023/09/25 11:47:56;;;;;;;3.92;1.70;;;;;;;;;;5063607;28;20380;-62
2023/09/25 11:50:22;;;;;;;5.30;2.05;;;;;;;;;;5069246;28;20052;-62
2023/09/25 11:52:48;;;;;;;3.05;1.85;;;;;;;;;;5064625;28;20502;-62
2023/09/25 11:55:15;;;;;;;3.92;2.13;;;;;;;;;;5045495;28;20044;-62
2023/09/25 11:57:44;;;;;;;2.53;1.75;;;;;;;;;;5058844;28;20047;-62
2023/09/25 12:00:11;;;;;;;3.15;1.63;;;;;;;;;;5068913;28;20043;-62
2023/09/25 12:02:37;;;;;;;3.67;1.63;;;;;;;;;;5068306;28;20459;-62
2023/09/25 12:05:04;;;;;;;6.10;2.03;;;;;;;;;;5069379;28;20166;-62
2023/09/25 12:07:31;;;;;;;4.13;1.77;;;;;;;;;;5060748;28;20037;-62
2023/09/25 12:09:57;;;;;;;2.38;1.73;;;;;;;;;;5059221;28;20036;-62
2023/09/25 12:12:23;;;;;;;4.93;1.83;;;;;;;;;;5049273;28;20395;-64
2023/09/25 12:14:51;;;;;;;3.65;1.65;;;;;;;;;;5042153;28;20039;-63
2023/09/25 12:17:18;;;;;;;2.25;1.38;;;;;;;;;;5042847;28;20098;-63
2023/09/25 12:19:45;;;;;;;8.52;2.22;;;;;;;;;;5051211;28;20090;-64
2023/09/25 12:22:11;;;;;;;3.90;1.90;;;;;;;;;;5045060;28;20041;-63
2023/09/25 12:24:38;;;;;;;4.78;2.05;;;;;;;;;;5049303;28;20118;-63
2023/09/25 12:27:04;;;;;;;3.67;1.77;;;;;;;;;;5054888;28;20051;-63
2023/09/25 12:29:30;;;;;;;4.63;1.95;;;;;;;;;;5047299;28;20102;-63
2023/09/25 12:31:56;;;;;;;3.42;1.70;;;;;;;;;;5049082;28;20101;-63
2023/09/25 12:34:22;;;;;;;4.95;1.95;;;;;;;;;;5032704;28;20084;-63
2023/09/25 12:36:48;;;;;;;3.03;1.73;;;;;;;;;;5033319;28;20076;-62
2023/09/25 12:39:16;;;;;;;3.90;1.90;;;;;;;;;;5065504;28;20782;-63
2023/09/25 12:41:42;;;;;;;3.03;1.80;;;;;;;;;;5045329;28;20040;-63
2023/09/25 12:44:09;;;;;;;4.50;1.73;;;;;;;;;;5048035;28;20053;-63
2023/09/25 12:46:35;;;;;;;3.05;1.70;;;;;;;;;;5054019;28;20045;-63
2023/09/25 12:49:02;;;;;;;2.97;2.05;;;;;;;;;;5031981;28;20424;-63
2023/09/25 12:51:28;;;;;;;3.40;1.80;;;;;;;;;;5064114;28;20092;-63
2023/09/25 12:53:54;;;;;;;6.78;2.10;;;;;;;;;;5040662;28;20044;-63
2023/09/25 12:56:21;;;;;;;3.28;1.77;;;;;;;;;;5052062;28;20052;-63
2023/09/25 12:58:47;;;;;;;4.28;2.15;;;;;;;;;;5056784;28;20037;-65
2023/09/25 13:01:13;;;;;;;5.57;1.77;;;;;;;;;;5058409;28;20522;-64
2023/09/25 13:03:39;;;;;;;4.10;2.10;;;;;;;;;;5065604;28;20042;-64
2023/09/25 13:06:05;;;;;;;2.65;1.83;;;;;;;;;;5073549;28;20041;-64
2023/09/25 13:08:31;;;;;;;2.55;1.70;;;;;;;;;;5073523;28;20102;-64
2023/09/25 13:10:57;;;;;;;5.30;1.80;;;;;;;;;;5055839;28;20124;-64
2023/09/25 13:13:23;;;;;;;4.90;1.90;;;;;;;;;;5073824;28;20033;-64
2023/09/25 13:15:49;;;;;;;4.32;1.92;;;;;;;;;;5073073;28;20437;-64
2023/09/25 13:18:16;;;;;;;3.78;1.98;;;;;;;;;;5061417;28;20063;-64
2023/09/25 13:20:42;;;;;;;5.30;1.88;;;;;;;;;;5073566;28;20028;-64
2023/09/25 13:23:08;;;;;;;3.88;1.55;;;;;;;;;;5069110;28;20052;-64
2023/09/25 13:25:34;;;;;;;5.00;1.70;;;;;;;;;;5039942;28;20612;-64
2023/09/25 13:28:00;;;;;;;4.75;1.85;;;;;;;;;;5073216;28;20040;-64
2023/09/25 13:30:26;;;;;;;5.20;1.83;;;;;;;;;;5073126;28;20048;-64
2023/09/25 13:32:52;;;;;;;3.10;1.88;;;;;;;;;;5073604;28;20422;-64
2023/09/25 13:35:19;;;;;;;2.83;1.50;;;;;;;;;;5073006;28;20064;-64
2023/09/25 13:37:46;;;;;;;4.07;1.83;;;;;;;;;;5073271;28;20044;-64
2023/09/25 13:40:16;;;;;;;3.80;1.80;;;;;;;;;;5055404;28;20105;-64
2023/09/25 13:42:43;;;;;;;2.50;1.70;;;;;;;;;;5073312;28;20044;-64
2023/09/25 13:45:12;;;;;;;3.75;1.90;;;;;;;;;;5054257;28;20037;-64
2023/09/25 13:47:44;;;;;;;5.68;1.60;;;;;;;;;;5057929;28;20048;-64
2023/09/25 13:50:11;;;;;;;4.25;2.00;;;;;;;;;;5073109;28;20453;-64
2023/09/25 13:52:37;;;;;;;2.78;1.75;;;;;;;;;;5066901;28;20199;-64
2023/09/25 13:55:04;;;;;;;3.80;1.95;;;;;;;;;;5072725;28;20036;-64
2023/09/25 13:57:32;;;;;;;4.80;2.40;;;;;;;;;;5051984;28;20353;-64
2023/09/25 13:59:58;;;;;;;2.47;1.52;;;;;;;;;;5051192;28;20032;-64
2023/09/25 14:02:24;;;;;;;4.15;1.70;;;;;;;;;;5056205;28;20491;-61
2023/09/25 14:04:50;;;;;;;3.20;1.77;;;;;;;;;;5054439;28;20048;-61
2023/09/25 14:07:16;;;;;;;5.00;1.95;;;;;;;;;;5063588;28;20067;-61
2023/09/25 14:09:42;;;;;;;4.78;1.88;;;;;;;;;;5050312;28;20053;-61
2023/09/25 14:12:08;;;;;;;3.05;1.70;;;;;;;;;;5056835;28;20160;-61
2023/09/25 14:14:51;;;;;;;2.80;1.80;;;;;;;;;;5060753;28;20119;-61
2023/09/25 14:17:17;;;;;;;2.47;1.55;;;;;;;;;;5056852;28;20049;-61
2023/09/25 14:19:43;;;;;;;3.83;1.70;;;;;;;;;;5055669;28;20477;-61
2023/09/25 14:22:09;;;;;;;2.85;1.70;;;;;;;;;;5042528;28;20555;-61
2023/09/25 14:24:35;;;;;;;6.28;2.10;;;;;;;;;;5048077;28;20034;-61
2023/09/25 14:27:01;;;;;;;2.45;1.50;;;;;;;;;;5046171;28;20043;-61
2023/09/25 14:29:27;;;;;;;5.95;1.80;;;;;;;;;;5049092;28;20045;-61
2023/09/25 14:31:54;;;;;;;5.35;2.00;;;;;;;;;;5058463;28;20037;-60
2023/09/25 14:34:20;;;;;;;4.13;1.83;;;;;;;;;;5068536;28;20099;-61
2023/09/25 14:36:46;;;;;;;5.03;1.95;;;;;;;;;;5057509;28;20088;-60
2023/09/25 14:39:12;;;;;;;7.55;2.03;;;;;;;;;;5034408;28;20452;-61
2023/09/25 14:41:38;;;;;;;5.00;1.70;;;;;;;;;;5070358;28;20075;-61